Time;durP1;ratioP1;P1;durP2;ratioP2;P2;SDS_P1;SDS_P2;PMS_P1;PMS_P2;Temp;Humidity;BMP_temperature;BMP_pressure;BME280_temperature;BME280_humidity;BME280_pressure;Samples;Min_cycle;Max_cycle;Signal;HPM_P1;HPM_P2
2023/12/02 00:01:26;;;;;;;;;;;;;;;;;;5050578;28;20055;-77
2023/12/02 00:03:52;;;;;;;33.00;13.57;;;;;;;;;;5056039;28;19927;-78
2023/12/02 00:06:18;;;;;;;35.92;14.27;;;;;;;;;;5075084;28;20032;-77
2023/12/02 00:08:44;;;;;;;;;;;;;;;;;;5073087;28;20140;-77
2023/12/02 00:11:11;;;;;;;30.10;12.13;;;;;;;;;;5055819;28;20007;-77
2023/12/02 00:13:37;;;;;;;35.75;13.55;;;;;;;;;;5057396;28;20079;-77
2023/12/02 00:16:03;;;;;;;;;;;;;;;;;;5040726;28;20047;-77
2023/12/02 00:18:29;;;;;;;35.90;13.68;;;;;;;;;;5073001;28;19956;-78
2023/12/02 00:20:55;;;;;;;;;;;;;;;;;;5058266;28;20059;-80
2023/12/02 00:23:21;;;;;;;33.88;14.75;;;;;;;;;;5057027;28;19920;-77
2023/12/02 00:25:47;;;;;;;;;;;;;;;;;;5074954;28;20040;-77
2023/12/02 00:28:14;;;;;;;36.20;13.73;;;;;;;;;;5056108;28;19942;-77
2023/12/02 00:30:40;;;;;;;;;;;;;;;;;;5072741;28;20515;-77
2023/12/02 00:33:06;;;;;;;35.97;14.52;;;;;;;;;;5073888;28;19927;-77
2023/12/02 00:35:32;;;;;;;;;;;;;;;;;;5074868;28;20048;-78
2023/12/02 00:37:58;;;;;;;38.33;14.38;;;;;;;;;;5057006;28;19934;-79
2023/12/02 00:40:24;;;;;;;;;;;;;;;;;;5057816;28;20125;-77
2023/12/02 00:42:50;;;;;;;38.05;15.25;;;;;;;;;;5073524;28;20365;-77
2023/12/02 00:45:16;;;;;;;35.47;13.85;;;;;;;;;;5073203;28;20070;-77
2023/12/02 00:47:42;;;;;;;;;;;;;;;;;;5074158;28;20368;-77
2023/12/02 00:50:08;;;;;;;34.55;14.43;;;;;;;;;;5073849;28;19927;-77
2023/12/02 00:52:34;;;;;;;35.55;14.07;;;;;;;;;;5073856;28;20134;-78
2023/12/02 00:55:00;;;;;;;;;;;;;;;;;;5071065;28;20071;-80
2023/12/02 00:57:26;;;;;;;35.20;14.43;;;;;;;;;;5052763;28;20374;-77
2023/12/02 00:59:52;;;;;;;;;;;;;;;;;;5072480;28;20096;-77
2023/12/02 01:02:18;;;;;;;28.67;11.00;;;;;;;;;;5056707;28;20360;-77
2023/12/02 01:04:44;;;;;;;33.50;14.00;;;;;;;;;;5056625;28;20056;-77
2023/12/02 01:07:10;;;;;;;;;;;;;;;;;;5073915;28;20099;-76
2023/12/02 01:09:36;;;;;;;31.50;12.70;;;;;;;;;;5057058;28;19955;-77
2023/12/02 01:12:02;;;;;;;;;;;;;;;;;;5090796;28;20044;-79
2023/12/02 01:14:28;;;;;;;36.05;15.18;;;;;;;;;;5056334;28;20073;-77
2023/12/02 01:16:54;;;;;;;;;;;;;;;;;;5056871;28;20085;-77
2023/12/02 01:19:21;;;;;;;37.40;14.13;;;;;;;;;;5052760;28;20009;-77
2023/12/02 01:21:47;;;;;;;36.45;14.38;;;;;;;;;;5063672;28;20045;-76
2023/12/02 01:24:13;;;;;;;;;;;;;;;;;;5073092;28;20374;-77
2023/12/02 01:26:39;;;;;;;36.25;13.50;;;;;;;;;;5073693;28;19927;-77
2023/12/02 01:29:05;;;;;;;;;;;;;;;;;;5056225;28;20643;-80
2023/12/02 01:31:31;;;;;;;38.13;14.23;;;;;;;;;;5073325;28;19919;-77
2023/12/02 01:33:57;;;;;;;39.00;14.00;;;;;;;;;;5073968;28;20095;-78
2023/12/02 01:36:23;;;;;;;;;;;;;;;;;;5056474;28;20039;-77
2023/12/02 01:38:49;;;;;;;39.80;14.95;;;;;;;;;;5053341;28;19982;-76
2023/12/02 01:41:15;;;;;;;35.28;14.10;;;;;;;;;;5036997;28;20096;-77
2023/12/02 01:43:41;;;;;;;39.20;14.23;;;;;;;;;;5058435;28;20493;-77
2023/12/02 01:46:07;;;;;;;38.80;14.70;;;;;;;;;;5038587;28;20509;-79
2023/12/02 01:48:33;;;;;;;;;;;;;;;;;;5037694;28;20131;-77
2023/12/02 01:50:59;;;;;;;32.53;13.25;;;;;;;;;;5037153;28;20027;-77
2023/12/02 01:53:25;;;;;;;36.80;13.85;;;;;;;;;;5019623;28;20805;-77
2023/12/02 01:55:52;;;;;;;41.15;15.50;;;;;;;;;;5053717;28;20048;-77
2023/12/02 01:58:19;;;;;;;42.22;15.00;;;;;;;;;;5035103;28;20078;-77
2023/12/02 02:00:46;;;;;;;40.67;14.43;;;;;;;;;;5054493;28;20508;-76
2023/12/02 02:03:12;;;;;;;37.83;14.05;;;;;;;;;;5052061;28;20059;-77
2023/12/02 02:05:38;;;;;;;;;;;;;;;;;;5053730;28;20048;-78
2023/12/02 02:08:04;;;;;;;41.83;14.98;;;;;;;;;;5056451;28;19920;-77
2023/12/02 02:10:30;;;;;;;;;;;;;;;;;;5073487;28;20079;-77
2023/12/02 02:12:56;;;;;;;39.08;15.40;;;;;;;;;;5072326;28;20040;-76
2023/12/02 02:15:22;;;;;;;;;;;;;;;;;;5074393;28;20044;-77
2023/12/02 02:17:48;;;;;;;42.60;16.40;;;;;;;;;;5077111;28;19920;-77
2023/12/02 02:20:14;;;;;;;37.30;15.20;;;;;;;;;;5060171;28;20375;-77
2023/12/02 02:22:40;;;;;;;36.70;14.60;;;;;;;;;;5056814;28;20649;-77
2023/12/02 02:25:06;;;;;;;;;;;;;;;;;;5039927;28;20060;-77
2023/12/02 02:27:32;;;;;;;39.33;15.07;;;;;;;;;;5071427;28;19927;-76
2023/12/02 02:29:58;;;;;;;;;;;;;;;;;;5052209;28;20068;-77
2023/12/02 02:32:24;;;;;;;39.22;15.63;;;;;;;;;;5039623;28;19920;-77
2023/12/02 02:34:50;;;;;;;;;;;;;;;;;;5057040;28;20151;-76
2023/12/02 02:37:16;;;;;;;44.00;15.93;;;;;;;;;;5055856;28;20007;-77
2023/12/02 02:39:42;;;;;;;;;;;;;;;;;;5057125;28;20044;-77
2023/12/02 02:42:09;;;;;;;37.50;14.32;;;;;;;;;;5039093;28;19932;-77
2023/12/02 02:44:36;;;;;;;43.45;14.75;;;;;;;;;;5056282;28;20053;-77
2023/12/02 02:47:02;;;;;;;46.00;15.95;;;;;;;;;;5062680;28;20109;-76
2023/12/02 02:49:28;;;;;;;;;;;;;;;;;;5062434;28;20044;-77
2023/12/02 02:51:54;;;;;;;43.22;16.67;;;;;;;;;;5056397;28;20051;-77
2023/12/02 02:54:20;;;;;;;42.58;16.58;;;;;;;;;;5039145;28;20041;-76
2023/12/02 02:56:46;;;;;;;;;;;;;;;;;;5072533;28;20044;-77
2023/12/02 02:59:12;;;;;;;42.40;16.48;;;;;;;;;;5075179;28;19920;-76
2023/12/02 03:01:38;;;;;;;;;;;;;;;;;;5058922;28;20051;-76
2023/12/02 03:04:04;;;;;;;49.47;17.30;;;;;;;;;;5059392;28;20007;-77
2023/12/02 03:06:30;;;;;;;;;;;;;;;;;;5076285;28;20497;-77
2023/12/02 03:08:56;;;;;;;45.50;16.90;;;;;;;;;;5059047;28;19920;-77
2023/12/02 03:11:22;;;;;;;;;;;;;;;;;;5054760;28;20040;-76
2023/12/02 03:13:48;;;;;;;45.53;18.00;;;;;;;;;;5055001;28;19926;-76
2023/12/02 03:16:14;;;;;;;;;;;;;;;;;;5055996;28;20127;-76
2023/12/02 03:18:40;;;;;;;43.38;16.75;;;;;;;;;;5055561;28;19952;-76
2023/12/02 03:21:06;;;;;;;47.30;18.40;;;;;;;;;;5056287;28;20138;-76
2023/12/02 03:23:32;;;;;;;;;;;;;;;;;;5055592;28;20052;-76
2023/12/02 03:25:58;;;;;;;45.53;17.10;;;;;;;;;;5039200;28;19920;-76
2023/12/02 03:28:24;;;;;;;;;;;;;;;;;;5054398;28;20084;-76
2023/12/02 03:30:50;;;;;;;50.45;17.35;;;;;;;;;;5038627;28;19920;-77
2023/12/02 03:33:16;;;;;;;45.03;18.23;;;;;;;;;;5039547;28;20044;-77
2023/12/02 03:35:42;;;;;;;;;;;;;;;;;;5057823;28;20105;-76
2023/12/02 03:38:09;;;;;;;44.85;18.80;;;;;;;;;;5071745;28;19924;-77
2023/12/02 03:40:34;;;;;;;;;;;;;;;;;;5055672;28;20118;-78
2023/12/02 03:43:00;;;;;;;40.17;16.80;;;;;;;;;;5054492;28;20360;-76
2023/12/02 03:45:26;;;;;;;;;;;;;;;;;;5055110;28;20041;-77
2023/12/02 03:47:52;;;;;;;46.88;17.90;;;;;;;;;;5038863;28;19943;-76
2023/12/02 03:50:18;;;;;;;;;;;;;;;;;;5055827;28;20051;-77
2023/12/02 03:52:48;;;;;;;44.42;16.90;;;;;;;;;;5067346;28;19920;-76
2023/12/02 03:55:14;;;;;;;46.72;18.17;;;;;;;;;;5055216;28;20486;-77
2023/12/02 03:57:40;;;;;;;;;;;;;;;;;;5061892;28;20059;-76
2023/12/02 04:00:10;;;;;;;45.33;16.60;;;;;;;;;;5071283;28;19920;-77
2023/12/02 04:02:40;;;;;;;42.30;16.50;;;;;;;;;;5050996;28;20057;-77
2023/12/02 04:05:10;;;;;;;46.38;17.63;;;;;;;;;;5051706;28;20088;-78
2023/12/02 04:07:36;;;;;;;47.83;17.75;;;;;;;;;;5051003;28;20056;-77
2023/12/02 04:10:03;;;;;;;46.55;18.13;;;;;;;;;;5042276;28;20381;-77
2023/12/02 04:12:34;;;;;;;44.58;17.30;;;;;;;;;;5050312;28;20133;-77
2023/12/02 04:15:00;;;;;;;46.33;16.30;;;;;;;;;;5051277;28;20049;-76
2023/12/02 04:17:26;;;;;;;45.45;18.15;;;;;;;;;;5051840;28;20053;-77
2023/12/02 04:19:52;;;;;;;43.75;16.55;;;;;;;;;;5050997;28;20055;-77
2023/12/02 04:22:19;;;;;;;46.83;17.92;;;;;;;;;;5051339;28;20063;-77
2023/12/02 04:24:46;;;;;;;42.92;15.68;;;;;;;;;;5067396;28;20119;-76
2023/12/02 04:27:12;;;;;;;43.38;17.40;;;;;;;;;;5053689;28;20056;-77
2023/12/02 04:29:41;;;;;;;42.75;16.08;;;;;;;;;;5071019;28;20052;-77
2023/12/02 04:32:08;;;;;;;46.92;17.67;;;;;;;;;;5050742;28;20048;-77
2023/12/02 04:34:34;;;;;;;42.78;18.38;;;;;;;;;;5050379;28;20045;-77
2023/12/02 04:37:01;;;;;;;48.60;17.52;;;;;;;;;;5051212;28;20049;-77
2023/12/02 04:39:27;;;;;;;45.40;17.38;;;;;;;;;;5052250;28;20049;-80
2023/12/02 04:41:54;;;;;;;45.55;18.08;;;;;;;;;;5048850;28;20044;-78
2023/12/02 04:44:20;;;;;;;49.92;18.65;;;;;;;;;;5051251;28;20040;-76
2023/12/02 04:46:47;;;;;;;46.00;18.30;;;;;;;;;;5050184;28;20537;-77
2023/12/02 04:49:13;;;;;;;47.65;18.40;;;;;;;;;;5034519;28;20048;-78
2023/12/02 04:51:39;;;;;;;;;;;;;;;;;;5061121;28;20040;-77
2023/12/02 04:54:05;;;;;;;50.25;19.10;;;;;;;;;;5070339;28;19927;-77
2023/12/02 04:56:31;;;;;;;42.22;17.35;;;;;;;;;;5053843;28;20071;-78
2023/12/02 04:58:57;;;;;;;45.88;17.75;;;;;;;;;;5069711;28;20475;-77
2023/12/02 05:01:23;;;;;;;;;;;;;;;;;;5054373;28;20048;-77
2023/12/02 05:03:49;;;;;;;43.70;16.73;;;;;;;;;;5051945;28;20012;-77
2023/12/02 05:06:15;;;;;;;;;;;;;;;;;;5072072;28;20084;-77
2023/12/02 05:08:44;;;;;;;47.20;15.70;;;;;;;;;;5036702;28;19928;-77
2023/12/02 05:11:18;;;;;;;41.00;15.75;;;;;;;;;;5053785;28;20050;-77
2023/12/02 05:13:45;;;;;;;45.20;17.00;;;;;;;;;;5038386;28;20049;-77
2023/12/02 05:16:11;;;;;;;44.65;17.45;;;;;;;;;;5020619;28;20059;-76
2023/12/02 05:18:39;;;;;;;48.40;19.45;;;;;;;;;;5036596;28;20098;-77
2023/12/02 05:21:05;;;;;;;44.45;17.35;;;;;;;;;;5054052;28;20055;-77
2023/12/02 05:23:31;;;;;;;;;;;;;;;;;;5037334;28;20056;-79
2023/12/02 05:25:57;;;;;;;45.05;18.25;;;;;;;;;;5046873;28;19977;-77
2023/12/02 05:28:23;;;;;;;;;;;;;;;;;;5053297;28;20056;-77
2023/12/02 05:30:50;;;;;;;43.15;18.02;;;;;;;;;;5036253;28;19920;-77
2023/12/02 05:33:17;;;;;;;46.88;18.50;;;;;;;;;;5037086;28;20097;-77
2023/12/02 05:35:43;;;;;;;46.45;18.25;;;;;;;;;;5036759;28;20394;-77
2023/12/02 05:38:09;;;;;;;;;;;;;;;;;;5078811;28;20052;-77
2023/12/02 05:40:35;;;;;;;51.22;18.45;;;;;;;;;;5036724;28;19928;-77
2023/12/02 05:43:01;;;;;;;;;;;;;;;;;;5036898;28;20135;-74
2023/12/02 05:45:27;;;;;;;45.90;17.45;;;;;;;;;;5036830;28;20439;-74
2023/12/02 05:47:53;;;;;;;;;;;;;;;;;;5036928;28;20059;-75
2023/12/02 05:50:19;;;;;;;49.78;18.45;;;;;;;;;;5038608;28;19920;-74
2023/12/02 05:52:45;;;;;;;;;;;;;;;;;;5057379;28;20044;-74
2023/12/02 05:55:12;;;;;;;47.88;17.50;;;;;;;;;;5042275;28;19990;-74
2023/12/02 05:57:38;;;;;;;48.75;18.67;;;;;;;;;;5091675;28;20113;-77
2023/12/02 06:00:05;;;;;;;44.63;17.67;;;;;;;;;;5077041;28;20101;-75
2023/12/02 06:02:31;;;;;;;53.28;18.80;;;;;;;;;;5060486;28;20051;-75
2023/12/02 06:04:57;;;;;;;;;;;;;;;;;;5060307;28;20413;-75
2023/12/02 06:07:23;;;;;;;47.58;18.50;;;;;;;;;;5060650;28;20003;-74
2023/12/02 06:09:49;;;;;;;;;;;;;;;;;;5060721;28;20097;-75
2023/12/02 06:12:15;;;;;;;42.85;16.08;;;;;;;;;;5059462;28;20669;-74
2023/12/02 06:14:41;;;;;;;;;;;;;;;;;;5071635;28;20052;-75
2023/12/02 06:17:08;;;;;;;48.58;17.85;;;;;;;;;;5040113;28;19924;-74
2023/12/02 06:19:34;;;;;;;49.13;17.70;;;;;;;;;;5057022;28;20484;-75
2023/12/02 06:22:01;;;;;;;48.35;17.77;;;;;;;;;;5056611;28;20080;-74
2023/12/02 06:24:26;;;;;;;;;;;;;;;;;;5061304;28;20389;-74
2023/12/02 06:26:52;;;;;;;51.45;18.95;;;;;;;;;;5076105;28;19920;-75
2023/12/02 06:29:18;;;;;;;;;;;;;;;;;;5077149;28;20062;-75
2023/12/02 06:31:45;;;;;;;47.05;18.85;;;;;;;;;;5070016;28;20377;-75
2023/12/02 06:34:10;;;;;;;;;;;;;;;;;;5040697;28;20040;-74
2023/12/02 06:36:36;;;;;;;47.28;18.75;;;;;;;;;;5056990;28;19926;-75
2023/12/02 06:39:04;;;;;;;;;;;;;;;;;;5068791;28;20946;-74
2023/12/02 06:41:30;;;;;;;48.15;17.95;;;;;;;;;;5073319;28;20003;-75
2023/12/02 06:43:56;;;;;;;45.50;17.30;;;;;;;;;;5055390;28;20101;-74
2023/12/02 06:46:23;;;;;;;48.58;17.38;;;;;;;;;;5056159;28;20048;-74
2023/12/02 06:48:49;;;;;;;44.40;17.48;;;;;;;;;;5056063;28;20450;-74
2023/12/02 06:51:15;;;;;;;44.45;17.75;;;;;;;;;;5056730;28;20048;-75
2023/12/02 06:53:41;;;;;;;48.70;17.77;;;;;;;;;;5044225;28;20571;-74
2023/12/02 06:56:18;;;;;;;51.08;20.00;;;;;;;;;;5056221;28;20044;-75
2023/12/02 06:58:44;;;;;;;47.78;17.67;;;;;;;;;;5055483;28;20113;-77
2023/12/02 07:01:10;;;;;;;;;;;;;;;;;;5038928;28;20045;-74
2023/12/02 07:03:38;;;;;;;48.95;17.77;;;;;;;;;;5073967;28;19920;-74
2023/12/02 07:06:04;;;;;;;49.17;18.05;;;;;;;;;;5092102;28;20054;-75
2023/12/02 07:08:30;;;;;;;46.38;16.95;;;;;;;;;;5057323;28;20127;-74
2023/12/02 07:10:56;;;;;;;52.05;18.20;;;;;;;;;;5042442;28;20040;-75
2023/12/02 07:13:22;;;;;;;;;;;;;;;;;;5075747;28;20048;-75
2023/12/02 07:15:48;;;;;;;47.50;17.23;;;;;;;;;;5080443;28;19942;-75
2023/12/02 07:18:14;;;;;;;;;;;;;;;;;;5093525;28;20130;-74
2023/12/02 07:20:40;;;;;;;51.63;18.08;;;;;;;;;;5093045;28;20012;-75
2023/12/02 07:23:06;;;;;;;;;;;;;;;;;;5075667;28;20048;-75
2023/12/02 07:25:33;;;;;;;45.90;16.17;;;;;;;;;;5075302;28;20292;-75
2023/12/02 07:27:59;;;;;;;51.53;17.45;;;;;;;;;;5054294;28;20094;-75
2023/12/02 07:30:25;;;;;;;;;;;;;;;;;;5064076;28;20131;-74
2023/12/02 07:32:51;;;;;;;46.25;17.17;;;;;;;;;;5047912;28;20015;-76
2023/12/02 07:35:17;;;;;;;41.33;16.10;;;;;;;;;;5071382;28;20044;-76
2023/12/02 07:37:47;;;;;;;53.33;18.92;;;;;;;;;;5074962;28;20043;-74
2023/12/02 07:40:13;;;;;;;45.80;18.23;;;;;;;;;;5058700;28;20055;-75
2023/12/02 07:42:39;;;;;;;;;;;;;;;;;;5058595;28;20056;-73
2023/12/02 07:45:06;;;;;;;43.42;17.30;;;;;;;;;;5058078;28;20422;-76
2023/12/02 07:47:33;;;;;;;50.20;19.13;;;;;;;;;;5059145;28;20528;-75
2023/12/02 07:49:59;;;;;;;47.97;18.95;;;;;;;;;;5074937;28;20095;-75
2023/12/02 07:52:27;;;;;;;;;;;;;;;;;;5075594;28;20040;-75
2023/12/02 07:54:53;;;;;;;48.72;18.38;;;;;;;;;;5074671;28;19927;-74
2023/12/02 07:57:19;;;;;;;;;;;;;;;;;;5049708;28;20093;-76
2023/12/02 07:59:45;;;;;;;51.45;18.40;;;;;;;;;;5068841;28;19920;-75
2023/12/02 08:02:11;;;;;;;;;;;;;;;;;;5087184;28;20048;-76
2023/12/02 08:04:37;;;;;;;53.42;17.98;;;;;;;;;;5092538;28;19931;-75
2023/12/02 08:07:03;;;;;;;;;;;;;;;;;;5074042;28;20480;-76
2023/12/02 08:09:29;;;;;;;49.78;16.95;;;;;;;;;;5072552;28;19951;-76
2023/12/02 08:11:55;;;;;;;;;;;;;;;;;;5045817;28;20123;-76
2023/12/02 08:14:23;;;;;;;57.85;19.67;;;;;;;;;;5069066;28;20019;-75
2023/12/02 08:16:49;;;;;;;55.47;19.52;;;;;;;;;;5057876;28;20048;-75
2023/12/02 08:19:16;;;;;;;53.83;18.23;;;;;;;;;;5071204;28;20079;-76
2023/12/02 08:21:43;;;;;;;51.88;19.35;;;;;;;;;;5054679;28;20493;-75
2023/12/02 08:24:09;;;;;;;;;;;;;;;;;;5037950;28;20307;-75
2023/12/02 08:26:35;;;;;;;49.72;18.33;;;;;;;;;;5038088;28;19989;-75
2023/12/02 08:29:01;;;;;;;;;;;;;;;;;;5037214;28;20052;-75
2023/12/02 08:31:27;;;;;;;49.50;20.30;;;;;;;;;;5054141;28;19931;-75
2023/12/02 08:33:53;;;;;;;;;;;;;;;;;;5081371;28;20141;-78
2023/12/02 08:36:19;;;;;;;47.40;17.98;;;;;;;;;;5066903;28;19967;-75
2023/12/02 08:38:45;;;;;;;;;;;;;;;;;;5058853;28;20067;-75
2023/12/02 08:41:11;;;;;;;52.35;18.27;;;;;;;;;;5053894;28;20357;-76
2023/12/02 08:43:37;;;;;;;;;;;;;;;;;;5037064;28;20493;-76
2023/12/02 08:46:03;;;;;;;48.28;17.17;;;;;;;;;;5059540;28;19974;-77
2023/12/02 08:48:29;;;;;;;;;;;;;;;;;;5057811;28;20109;-76
2023/12/02 08:50:55;;;;;;;46.97;18.95;;;;;;;;;;5057028;28;19924;-78
2023/12/02 08:53:21;;;;;;;49.78;19.77;;;;;;;;;;5073798;28;20109;-76
2023/12/02 08:55:47;;;;;;;;;;;;;;;;;;5072411;28;20455;-77
2023/12/02 08:58:13;;;;;;;52.70;19.48;;;;;;;;;;5067634;28;19924;-75
2023/12/02 09:00:39;;;;;;;;;;;;;;;;;;5057651;28;20054;-76
2023/12/02 09:03:05;;;;;;;48.00;17.27;;;;;;;;;;5053118;28;19920;-78
2023/12/02 09:05:31;;;;;;;;;;;;;;;;;;5038010;28;20474;-76
2023/12/02 09:08:00;;;;;;;47.45;17.15;;;;;;;;;;5038295;28;19946;-77
2023/12/02 09:10:26;;;;;;;50.28;18.83;;;;;;;;;;5063554;28;20111;-75
2023/12/02 09:12:52;;;;;;;;;;;;;;;;;;5046766;28;20048;-75
2023/12/02 09:15:18;;;;;;;47.42;17.63;;;;;;;;;;5045283;28;19947;-76
2023/12/02 09:17:56;;;;;;;53.22;18.08;;;;;;;;;;5064690;28;20063;-78
2023/12/02 09:20:43;;;;;;;50.88;18.90;;;;;;;;;;5047342;28;20478;-76
2023/12/02 09:23:10;;;;;;;47.08;17.48;;;;;;;;;;5063727;28;20056;-76
2023/12/02 09:25:38;;;;;;;53.03;19.40;;;;;;;;;;5045109;28;20101;-76
2023/12/02 09:28:07;;;;;;;52.25;19.83;;;;;;;;;;5045959;28;20040;-76
2023/12/02 09:30:33;;;;;;;53.90;19.40;;;;;;;;;;5064956;28;20048;-76
2023/12/02 09:33:00;;;;;;;51.22;19.05;;;;;;;;;;5044932;28;20085;-77
2023/12/02 09:35:26;;;;;;;51.28;19.58;;;;;;;;;;5047253;28;20119;-77
2023/12/02 09:37:53;;;;;;;44.42;17.95;;;;;;;;;;5051205;28;20044;-76
2023/12/02 09:40:23;;;;;;;44.65;18.33;;;;;;;;;;5047683;28;20054;-76
2023/12/02 09:42:55;;;;;;;47.60;17.88;;;;;;;;;;5066988;28;20044;-76
2023/12/02 09:45:31;;;;;;;48.17;18.83;;;;;;;;;;5047081;28;20052;-76
2023/12/02 09:48:02;;;;;;;47.85;18.92;;;;;;;;;;5062762;28;20059;-77
2023/12/02 09:50:31;;;;;;;45.72;18.05;;;;;;;;;;5045217;28;20059;-76
2023/12/02 09:53:15;;;;;;;51.92;19.25;;;;;;;;;;5057929;28;20053;-77
2023/12/02 09:55:51;;;;;;;47.70;17.98;;;;;;;;;;5053604;28;20056;-77
2023/12/02 09:58:21;;;;;;;45.55;17.55;;;;;;;;;;5035614;28;20053;-74
2023/12/02 10:00:59;;;;;;;50.50;18.60;;;;;;;;;;5053162;28;20053;-76
2023/12/02 10:03:25;;;;;;;48.92;18.52;;;;;;;;;;5032584;28;20092;-77
2023/12/02 10:05:51;;;;;;;;;;;;;;;;;;5050741;28;20061;-77
2023/12/02 10:08:23;;;;;;;45.85;18.05;;;;;;;;;;5037010;28;19929;-79
2023/12/02 10:10:52;;;;;;;49.83;18.65;;;;;;;;;;5046418;28;20045;-77
2023/12/02 10:13:19;;;;;;;51.63;19.55;;;;;;;;;;5064443;28;20049;-76
2023/12/02 10:15:55;;;;;;;45.55;18.63;;;;;;;;;;5017799;28;20183;-77
2023/12/02 10:18:23;;;;;;;43.28;18.17;;;;;;;;;;5049837;28;20154;-76
2023/12/02 10:20:55;;;;;;;48.63;18.90;;;;;;;;;;5033535;28;20474;-77
2023/12/02 10:23:45;;;;;;;47.65;19.05;;;;;;;;;;5049353;28;20064;-77
2023/12/02 10:26:33;;;;;;;46.70;17.48;;;;;;;;;;5066745;28;20561;-76
2023/12/02 10:29:23;;;;;;;45.67;17.42;;;;;;;;;;5068971;28;20052;-76
2023/12/02 10:31:56;;;;;;;47.97;18.30;;;;;;;;;;5069166;28;20547;-76
2023/12/02 10:34:25;;;;;;;42.25;17.33;;;;;;;;;;5064690;28;20140;-76
2023/12/02 10:36:53;;;;;;;43.92;17.48;;;;;;;;;;5034217;28;20048;-76
2023/12/02 10:39:28;;;;;;;40.83;17.00;;;;;;;;;;5053976;28;20041;-77
2023/12/02 10:42:04;;;;;;;46.58;18.00;;;;;;;;;;5052903;28;20064;-77
2023/12/02 10:44:34;;;;;;;47.90;18.70;;;;;;;;;;5052636;28;20041;-76
2023/12/02 10:47:01;;;;;;;41.78;17.05;;;;;;;;;;5052386;28;20541;-76
2023/12/02 10:49:29;;;;;;;45.25;17.70;;;;;;;;;;5052422;28;20421;-77
2023/12/02 10:51:55;;;;;;;46.95;18.10;;;;;;;;;;5053375;28;20095;-75
2023/12/02 10:54:24;;;;;;;49.33;20.10;;;;;;;;;;5035671;28;20052;-77
2023/12/02 10:56:50;;;;;;;45.80;17.30;;;;;;;;;;5046950;28;20055;-76
2023/12/02 10:59:22;;;;;;;46.50;18.77;;;;;;;;;;5061012;28;20448;-77
2023/12/02 11:01:59;;;;;;;43.30;18.25;;;;;;;;;;5088635;28;20105;-77
2023/12/02 11:04:33;;;;;;;47.95;19.60;;;;;;;;;;5062468;28;20052;-77
2023/12/02 11:07:03;;;;;;;45.90;17.88;;;;;;;;;;5062713;28;20045;-79
2023/12/02 11:09:35;;;;;;;50.33;18.65;;;;;;;;;;5040774;28;20029;-76
2023/12/02 11:12:23;;;;;;;48.45;18.65;;;;;;;;;;5060414;28;20087;-76
2023/12/02 11:14:49;;;;;;;53.03;18.73;;;;;;;;;;5061233;28;20372;-76
2023/12/02 11:17:34;;;;;;;53.08;19.63;;;;;;;;;;5056881;28;20037;-76
2023/12/02 11:20:11;;;;;;;45.70;18.85;;;;;;;;;;5086390;28;20076;-77
2023/12/02 11:22:41;;;;;;;45.10;18.67;;;;;;;;;;5055443;28;20054;-78
2023/12/02 11:25:13;;;;;;;43.05;17.58;;;;;;;;;;5038329;28;20044;-75
2023/12/02 11:27:45;;;;;;;49.88;18.75;;;;;;;;;;5059004;28;20405;-75
2023/12/02 11:30:30;;;;;;;46.42;17.77;;;;;;;;;;5048813;28;20048;-78
2023/12/02 11:33:00;;;;;;;39.10;17.35;;;;;;;;;;5043773;28;20043;-75
2023/12/02 11:35:31;;;;;;;46.05;18.30;;;;;;;;;;5061716;28;20432;-75
2023/12/02 11:37:58;;;;;;;43.05;18.55;;;;;;;;;;5063912;28;20083;-75
2023/12/02 11:40:35;;;;;;;38.72;17.42;;;;;;;;;;5050686;28;20044;-76
2023/12/02 11:43:01;;;;;;;43.45;17.63;;;;;;;;;;5046232;28;20040;-75
2023/12/02 11:45:33;;;;;;;39.90;17.85;;;;;;;;;;5045659;28;20044;-76
2023/12/02 11:48:02;;;;;;;38.13;16.33;;;;;;;;;;5060200;28;20043;-76
2023/12/02 11:50:34;;;;;;;44.22;17.88;;;;;;;;;;5044934;28;20044;-77
2023/12/02 11:53:14;;;;;;;39.05;17.45;;;;;;;;;;5062139;28;20047;-77
2023/12/02 11:55:43;;;;;;;41.97;17.83;;;;;;;;;;5087794;28;20044;-77
2023/12/02 11:58:09;;;;;;;40.80;16.83;;;;;;;;;;5060356;28;20504;-77
2023/12/02 12:00:38;;;;;;;41.67;18.50;;;;;;;;;;5062048;28;20123;-76
2023/12/02 12:03:10;;;;;;;35.05;16.27;;;;;;;;;;5043046;28;20056;-78
2023/12/02 12:05:55;;;;;;;42.72;17.20;;;;;;;;;;5040252;28;20313;-75
2023/12/02 12:08:22;;;;;;;35.63;16.23;;;;;;;;;;5041718;28;20075;-75
2023/12/02 12:10:49;;;;;;;39.97;17.17;;;;;;;;;;5055109;28;20049;-75
2023/12/02 12:13:20;;;;;;;35.17;16.40;;;;;;;;;;5045582;28;20045;-75
2023/12/02 12:15:46;;;;;;;36.60;17.05;;;;;;;;;;5032492;28;20153;-74
2023/12/02 12:18:13;;;;;;;40.30;17.60;;;;;;;;;;5049458;28;20123;-74
2023/12/02 12:20:42;;;;;;;37.78;16.58;;;;;;;;;;5054586;28;20037;-75
2023/12/02 12:23:08;;;;;;;38.30;16.38;;;;;;;;;;5083165;28;20058;-75
2023/12/02 12:25:36;;;;;;;37.42;17.23;;;;;;;;;;5065289;28;20082;-74
2023/12/02 12:28:02;;;;;;;39.88;17.17;;;;;;;;;;5063920;28;20099;-75
2023/12/02 12:30:48;;;;;;;39.85;17.40;;;;;;;;;;5040728;28;20371;-73
2023/12/02 12:33:15;;;;;;;37.83;15.65;;;;;;;;;;5059595;28;20469;-75
2023/12/02 12:35:41;;;;;;;39.50;16.60;;;;;;;;;;5081511;28;20125;-75
2023/12/02 12:38:09;;;;;;;39.55;15.95;;;;;;;;;;5033773;28;20052;-74
2023/12/02 12:40:35;;;;;;;40.70;17.27;;;;;;;;;;5082042;28;20060;-75
2023/12/02 12:43:02;;;;;;;40.78;17.52;;;;;;;;;;5047994;28;20045;-74
2023/12/02 12:45:28;;;;;;;44.60;18.25;;;;;;;;;;5040749;28;20048;-75
2023/12/02 12:47:54;;;;;;;;;;;;;;;;;;5061511;28;20481;-74
2023/12/02 12:50:22;;;;;;;43.08;17.42;;;;;;;;;;5064461;28;20420;-74
2023/12/02 12:52:52;;;;;;;41.20;17.30;;;;;;;;;;5060427;28;20127;-74
2023/12/02 12:55:23;;;;;;;43.15;17.75;;;;;;;;;;5035303;28;20095;-74
2023/12/02 12:57:58;;;;;;;39.42;16.88;;;;;;;;;;5043026;28;20056;-74
2023/12/02 13:00:27;;;;;;;40.15;15.90;;;;;;;;;;5078502;28;20397;-76
2023/12/02 13:03:00;;;;;;;42.67;17.30;;;;;;;;;;5061625;28;20049;-78
2023/12/02 13:05:34;;;;;;;38.97;16.40;;;;;;;;;;5061318;28;20048;-76
2023/12/02 13:08:04;;;;;;;38.60;16.17;;;;;;;;;;5061995;28;20102;-76
2023/12/02 13:10:33;;;;;;;40.42;16.48;;;;;;;;;;5059242;28;20056;-76
2023/12/02 13:13:07;;;;;;;43.03;16.35;;;;;;;;;;5059231;28;20051;-75
2023/12/02 13:15:34;;;;;;;39.40;16.52;;;;;;;;;;5044123;28;20044;-76
2023/12/02 13:18:00;;;;;;;46.38;18.25;;;;;;;;;;5043475;28;20072;-76
2023/12/02 13:20:29;;;;;;;47.47;18.70;;;;;;;;;;5060653;28;20123;-77
2023/12/02 13:22:56;;;;;;;45.60;18.00;;;;;;;;;;5085594;28;20053;-77
2023/12/02 13:25:25;;;;;;;43.58;18.55;;;;;;;;;;5060931;28;20076;-77
2023/12/02 13:27:51;;;;;;;42.30;16.75;;;;;;;;;;5062260;28;20501;-77
2023/12/02 13:30:19;;;;;;;43.83;17.50;;;;;;;;;;5062605;28;20498;-77
2023/12/02 13:32:47;;;;;;;44.00;18.30;;;;;;;;;;5045125;28;20048;-78
2023/12/02 13:35:14;;;;;;;39.53;16.95;;;;;;;;;;5062311;28;20144;-77
2023/12/02 13:37:48;;;;;;;43.92;17.02;;;;;;;;;;5048975;28;20052;-77
2023/12/02 13:40:18;;;;;;;40.97;16.77;;;;;;;;;;5042798;28;20045;-77
2023/12/02 13:42:48;;;;;;;40.42;16.45;;;;;;;;;;5057838;28;20056;-77
2023/12/02 13:45:17;;;;;;;36.88;15.80;;;;;;;;;;5055948;28;20049;-77
2023/12/02 13:48:01;;;;;;;43.92;17.40;;;;;;;;;;5063379;28;20124;-77
2023/12/02 13:50:32;;;;;;;38.97;16.02;;;;;;;;;;5064234;28;20049;-77
2023/12/02 13:53:02;;;;;;;41.20;16.67;;;;;;;;;;5066572;28;20572;-77
2023/12/02 13:55:31;;;;;;;44.22;18.10;;;;;;;;;;5057242;28;20048;-77
2023/12/02 13:58:19;;;;;;;47.80;18.77;;;;;;;;;;5060959;28;20051;-76
2023/12/02 14:01:00;;;;;;;47.75;18.10;;;;;;;;;;5059672;28;20071;-76
2023/12/02 14:03:29;;;;;;;38.47;16.65;;;;;;;;;;5060540;28;20079;-76
2023/12/02 14:05:58;;;;;;;40.75;17.10;;;;;;;;;;5041464;28;20083;-76
2023/12/02 14:08:25;;;;;;;43.75;15.68;;;;;;;;;;5060782;28;20072;-76
2023/12/02 14:10:52;;;;;;;41.13;16.20;;;;;;;;;;5055956;28;20049;-75
2023/12/02 14:13:18;;;;;;;39.80;16.52;;;;;;;;;;5086339;28;20076;-76
2023/12/02 14:15:44;;;;;;;;;;;;;;;;;;5090380;28;20432;-75
2023/12/02 14:18:17;;;;;;;42.92;16.55;;;;;;;;;;5065094;28;19967;-75
2023/12/02 14:20:43;;;;;;;35.40;16.20;;;;;;;;;;5046199;28;20106;-75
2023/12/02 14:23:33;;;;;;;35.30;15.32;;;;;;;;;;5061704;28;20041;-75
2023/12/02 14:26:09;;;;;;;34.45;15.20;;;;;;;;;;5043914;28;20124;-74
2023/12/02 14:28:54;;;;;;;36.22;15.73;;;;;;;;;;5052991;28;20045;-78
2023/12/02 14:31:29;;;;;;;37.03;16.00;;;;;;;;;;5062627;28;20040;-76
2023/12/02 14:33:55;;;;;;;41.38;16.10;;;;;;;;;;5043757;28;20151;-76
2023/12/02 14:36:36;;;;;;;36.30;16.02;;;;;;;;;;5063613;28;20128;-75
2023/12/02 14:39:19;;;;;;;38.53;15.27;;;;;;;;;;5052648;28;20547;-75
2023/12/02 14:41:52;;;;;;;36.25;14.95;;;;;;;;;;5058597;28;20059;-74
2023/12/02 14:44:26;;;;;;;38.60;16.08;;;;;;;;;;5045233;28;20132;-76
2023/12/02 14:47:02;;;;;;;36.67;15.43;;;;;;;;;;5059568;28;20084;-75
2023/12/02 14:49:29;;;;;;;39.58;16.35;;;;;;;;;;5052768;28;20048;-74
2023/12/02 14:51:56;;;;;;;40.08;15.82;;;;;;;;;;5053793;28;20041;-77